Time;durP1;ratioP1;P1;durP2;ratioP2;P2;SDS_P1;SDS_P2;PMS_P1;PMS_P2;Temp;Humidity;BMP_temperature;BMP_pressure;BME280_temperature;BME280_humidity;BME280_pressure;Samples;Min_cycle;Max_cycle;Signal;HPM_P1;HPM_P2
2022/04/21 00:01:15;;;;;;;10.07;8.40;;;;;;;8.27;100.00;101728.50;4948465;28;20044;-75
2022/04/21 00:03:43;;;;;;;12.80;9.10;;;;;;;8.26;100.00;101727.59;4929507;29;20051;-75
2022/04/21 00:06:11;;;;;;;14.73;9.73;;;;;;;8.27;100.00;101725.84;4910279;29;20448;-76
2022/04/21 00:08:41;;;;;;;12.15;8.98;;;;;;;8.26;100.00;101727.59;4960813;28;20043;-76
2022/04/21 00:11:09;;;;;;;13.13;9.38;;;;;;;8.27;100.00;101731.13;4902588;28;20607;-75
2022/04/21 00:13:38;;;;;;;12.82;8.82;;;;;;;8.27;100.00;101728.50;4954556;28;20516;-75
2022/04/21 00:16:06;;;;;;;13.23;8.93;;;;;;;8.26;100.00;101721.44;4942981;28;20051;-75
2022/04/21 00:18:35;;;;;;;10.85;8.57;;;;;;;8.25;100.00;101724.94;4934300;28;20058;-75
2022/04/21 00:21:04;;;;;;;14.68;9.55;;;;;;;8.24;100.00;101715.25;4958936;28;20056;-75
2022/04/21 00:23:33;;;;;;;13.93;9.07;;;;;;;8.22;100.00;101712.59;4928829;29;20028;-75
2022/04/21 00:26:02;;;;;;;14.65;8.77;;;;;;;8.20;100.00;101712.56;4924313;28;20051;-75
2022/04/21 00:28:32;;;;;;;11.68;8.70;;;;;;;8.19;100.00;101702.91;4956105;28;20091;-75
2022/04/21 00:31:00;;;;;;;14.43;9.85;;;;;;;8.21;100.00;101708.22;4929943;28;20410;-76
2022/04/21 00:33:28;;;;;;;13.48;9.32;;;;;;;8.20;100.00;101699.44;4926637;29;20071;-76
2022/04/21 00:35:57;;;;;;;10.95;9.50;;;;;;;8.20;100.00;101696.81;4941708;29;20602;-76
2022/04/21 00:38:25;;;;;;;15.93;9.85;;;;;;;8.18;100.00;101693.28;4926082;28;20380;-76
2022/04/21 00:40:54;;;;;;;12.60;9.07;;;;;;;8.19;100.00;101694.16;4935188;28;20543;-75
2022/04/21 00:43:23;;;;;;;13.50;9.45;;;;;;;8.19;100.00;101694.16;4942810;28;20150;-75
2022/04/21 00:45:54;;;;;;;12.48;9.40;;;;;;;8.15;100.00;101682.69;4920188;28;20063;-75
2022/04/21 00:48:23;;;;;;;10.85;9.55;;;;;;;8.14;100.00;101690.50;4952500;28;20051;-75
2022/04/21 00:50:51;;;;;;;11.90;9.80;;;;;;;8.13;100.00;101676.50;4942959;29;20047;-75
2022/04/21 00:53:20;;;;;;;11.15;9.45;;;;;;;8.10;100.00;101679.03;4972572;28;20161;-75
2022/04/21 00:55:48;;;;;;;15.25;9.98;;;;;;;8.06;100.00;101671.94;4928801;29;20051;-76
2022/04/21 00:58:17;;;;;;;14.30;8.82;;;;;;;8.06;100.00;101671.94;4906410;28;20047;-76
2022/04/21 01:00:45;;;;;;;14.13;10.32;;;;;;;8.05;100.00;101680.63;4955184;28;20044;-75
2022/04/21 01:03:14;;;;;;;16.67;10.75;;;;;;;8.03;100.00;101677.09;4929771;28;20244;-76
2022/04/21 01:05:43;;;;;;;12.30;9.82;;;;;;;8.01;100.00;101676.16;4959894;28;20505;-75
2022/04/21 01:08:13;;;;;;;13.32;10.02;;;;;;;7.98;100.00;101683.97;4926203;29;20347;-75
2022/04/21 01:10:42;;;;;;;15.60;9.77;;;;;;;7.97;100.00;101687.41;4927585;29;20043;-75
2022/04/21 01:13:13;;;;;;;14.88;10.48;;;;;;;7.95;100.00;101682.13;4939756;28;20052;-75
2022/04/21 01:15:41;;;;;;;11.02;9.88;;;;;;;7.94;100.00;101679.44;4930436;29;20062;-76
2022/04/21 01:18:10;;;;;;;13.75;10.57;;;;;;;7.93;100.00;101681.19;4928991;28;20244;-75
2022/04/21 01:20:38;;;;;;;15.38;10.23;;;;;;;7.92;100.00;101679.44;4934639;29;20055;-76
2022/04/21 01:23:07;;;;;;;14.18;9.43;;;;;;;7.92;100.00;101679.44;4928564;29;20055;-77
2022/04/21 01:25:39;;;;;;;14.02;10.00;;;;;;;7.91;100.00;101680.28;4947290;28;20056;-75
2022/04/21 01:28:09;;;;;;;14.45;10.60;;;;;;;7.90;100.00;101681.13;4927003;29;20048;-75
2022/04/21 01:30:39;;;;;;;14.57;10.30;;;;;;;7.88;100.00;101679.28;4923577;28;20043;-76
2022/04/21 01:33:08;;;;;;;12.57;10.25;;;;;;;7.88;100.00;101689.78;4931903;28;20043;-75
2022/04/21 01:35:37;;;;;;;13.25;10.35;;;;;;;7.87;100.00;101682.78;4962011;28;20066;-76
2022/04/21 01:41:11;;;;;;;10.25;9.18;;;;;;;7.81;100.00;101673.88;4943576;28;20052;-75
2022/04/21 01:43:43;;;;;;;12.05;9.80;;;;;;;7.78;100.00;101684.28;4931830;29;20059;-75
2022/04/21 01:46:12;;;;;;;12.55;9.30;;;;;;;7.75;100.00;101678.06;4917324;28;20367;-75
2022/04/21 01:48:40;;;;;;;10.10;8.73;;;;;;;7.74;100.00;101684.16;4940929;28;20047;-76
2022/04/21 01:51:09;;;;;;;11.38;8.18;;;;;;;7.73;100.00;101679.75;4934678;28;20280;-75
2022/04/21 01:53:37;;;;;;;11.20;7.40;;;;;;;7.71;100.00;101679.75;4962595;28;20044;-75
2022/04/21 01:56:06;;;;;;;10.68;7.65;;;;;;;7.71;100.00;101677.13;4959955;28;20071;-75
2022/04/21 01:58:34;;;;;;;9.57;7.85;;;;;;;7.70;100.00;101671.81;4931335;29;20052;-76
2022/04/21 02:01:05;;;;;;;;;;;;;;;7.67;100.00;101674.34;4913097;28;20051;-76
2022/04/21 02:03:34;;;;;;;9.15;7.70;;;;;;;7.68;100.00;101673.50;4961641;28;20311;-76
2022/04/21 02:06:02;;;;;;;9.88;8.18;;;;;;;7.67;100.00;101677.84;4920962;29;20058;-76
2022/04/21 02:08:31;;;;;;;11.27;6.45;;;;;;;7.66;100.00;101676.09;4928746;29;20059;-76
2022/04/21 02:11:00;;;;;;;9.48;6.88;;;;;;;7.67;100.00;101671.72;4927719;29;20058;-76
2022/04/21 02:13:28;;;;;;;8.68;6.88;;;;;;;7.66;100.00;101670.84;4929415;29;20058;-76
2022/04/21 02:15:57;;;;;;;8.82;7.45;;;;;;;7.66;100.00;101672.59;4889484;29;20046;-76
2022/04/21 02:18:25;;;;;;;8.77;7.63;;;;;;;7.64;100.00;101666.38;4972065;28;20044;-76
2022/04/21 02:20:53;;;;;;;7.88;6.72;;;;;;;7.61;100.00;101665.44;4949090;28;20375;-76
2022/04/21 02:23:22;;;;;;;8.88;7.50;;;;;;;7.60;100.00;101661.06;4927966;29;20252;-76
2022/04/21 02:25:51;;;;;;;11.20;7.43;;;;;;;7.59;100.00;101664.50;4946313;28;20048;-76
2022/04/21 02:28:22;;;;;;;10.18;7.75;;;;;;;7.58;100.00;101656.59;4942605;29;20276;-76
2022/04/21 02:30:51;;;;;;;8.85;7.28;;;;;;;7.55;100.00;101646.03;4941288;28;20405;-75
2022/04/21 02:33:20;;;;;;;11.80;7.72;;;;;;;7.55;100.00;101654.78;4948551;28;20044;-76
2022/04/21 02:35:48;;;;;;;7.13;6.43;;;;;;;7.54;100.00;101652.13;4962932;28;20050;-76
2022/04/21 02:38:17;;;;;;;8.63;7.65;;;;;;;7.53;100.00;101650.34;4950258;28;20048;-76
2022/04/21 02:40:46;;;;;;;10.00;7.10;;;;;;;7.53;100.00;101658.22;4946170;29;20386;-76
2022/04/21 02:43:14;;;;;;;9.75;7.03;;;;;;;7.50;100.00;101656.38;4941428;28;20074;-76
2022/04/21 02:45:43;;;;;;;10.25;7.50;;;;;;;7.48;100.00;101660.69;4929871;29;20058;-76
2022/04/21 02:48:12;;;;;;;10.38;6.68;;;;;;;7.47;100.00;101651.06;4882498;29;20265;-76
2022/04/21 02:50:41;;;;;;;10.43;7.63;;;;;;;7.47;100.00;101640.56;4941148;29;20056;-76
2022/04/21 02:53:09;;;;;;;8.95;6.85;;;;;;;7.47;100.00;101652.81;4933839;28;20334;-76
2022/04/21 02:58:26;;;;;;;12.25;6.97;;;;;;;7.44;100.00;101657.94;4922569;29;20052;-75
2022/04/21 03:00:54;;;;;;;9.45;7.35;;;;;;;7.41;100.00;101653.53;4943298;28;20372;-75
2022/04/21 03:03:23;;;;;;;8.88;7.25;;;;;;;7.40;100.00;101651.72;4902461;28;20153;-75
2022/04/21 03:05:51;;;;;;;7.25;6.55;;;;;;;7.38;100.00;101654.31;4929086;29;20038;-75
2022/04/21 03:08:20;;;;;;;7.35;6.65;;;;;;;7.36;100.00;101657.72;4951221;28;20157;-75
2022/04/21 03:10:48;;;;;;;9.32;6.50;;;;;;;7.35;100.00;101669.03;4930258;29;20051;-76
2022/04/21 03:13:16;;;;;;;9.20;6.95;;;;;;;7.35;100.00;101653.31;4926055;29;20352;-75
2022/04/21 03:15:45;;;;;;;9.15;7.82;;;;;;;7.34;100.00;101656.81;4923689;29;20044;-75
2022/04/21 03:18:13;;;;;;;6.68;6.07;;;;;;;7.33;100.00;101661.13;4905283;28;20416;-75
2022/04/21 03:26:17;;;;;;;8.65;7.03;;;;;;;7.28;100.00;101662.75;4929595;29;20052;-76
2022/04/21 03:28:45;;;;;;;9.20;6.60;;;;;;;7.26;100.00;101668.78;4926766;29;20173;-76
2022/04/21 03:31:14;;;;;;;7.68;6.43;;;;;;;7.24;100.00;101666.13;4925919;29;20059;-76
2022/04/21 03:33:43;;;;;;;8.80;6.90;;;;;;;7.21;100.00;101666.03;4916889;28;20036;-75
2022/04/21 03:36:16;;;;;;;9.38;6.65;;;;;;;7.17;100.00;101662.41;4927272;29;20052;-76
2022/04/21 03:38:44;;;;;;;7.55;6.85;;;;;;;7.15;100.00;101661.50;4950701;28;20349;-76
2022/04/21 03:41:13;;;;;;;8.93;7.00;;;;;;;7.13;100.00;101655.31;4928267;29;20035;-76
2022/04/21 03:43:47;;;;;;;8.63;6.72;;;;;;;7.14;100.00;101656.19;4955380;28;20054;-76
2022/04/21 03:46:16;;;;;;;8.40;6.93;;;;;;;7.13;100.00;101663.19;4927141;29;20055;-76
2022/04/21 03:48:44;;;;;;;10.18;8.10;;;;;;;7.12;100.00;101663.13;4903476;28;20345;-76
2022/04/21 03:51:15;;;;;;;11.68;7.07;;;;;;;7.13;100.00;101667.53;4946576;28;20417;-76
2022/04/21 03:53:43;;;;;;;9.98;7.15;;;;;;;7.13;100.00;101672.78;4951414;28;20048;-76
2022/04/21 03:56:11;;;;;;;9.27;6.80;;;;;;;7.11;100.00;101664.00;4960346;28;20052;-75
2022/04/21 03:58:40;;;;;;;9.68;7.53;;;;;;;7.09;100.00;101668.25;4924840;29;20051;-76
2022/04/21 04:01:08;;;;;;;8.00;7.18;;;;;;;7.08;100.00;101664.75;4927702;29;20398;-75
2022/04/21 04:03:37;;;;;;;7.85;7.05;;;;;;;7.07;100.00;101668.25;4916544;28;20048;-75
2022/04/21 04:10:51;;;;;;;10.40;8.05;;;;;;;7.05;100.00;101671.63;4952019;28;20044;-76
2022/04/21 04:11:44;;;;;;;10.32;8.00;;;;;;;6.99;100.00;101674.97;4941172;29;20035;-76
2022/04/21 04:14:12;;;;;;;10.68;8.18;;;;;;;6.97;100.00;101674.03;4928319;29;20044;-76
2022/04/21 04:16:40;;;;;;;10.50;8.27;;;;;;;6.95;100.00;101666.09;4927009;29;20044;-75
2022/04/21 04:19:10;;;;;;;9.18;7.80;;;;;;;6.92;100.00;101668.66;4920505;28;20405;-76
2022/04/21 04:21:39;;;;;;;10.70;7.78;;;;;;;6.90;100.00;101667.72;4941056;28;20051;-76
2022/04/21 04:24:07;;;;;;;11.80;8.10;;;;;;;6.89;100.00;101673.78;4962314;28;20040;-77
2022/04/21 04:26:36;;;;;;;14.02;9.02;;;;;;;6.87;100.00;101670.22;4948534;28;20059;-77
2022/04/21 04:29:04;;;;;;;9.30;8.32;;;;;;;6.86;100.00;101665.81;4930067;29;20052;-76
2022/04/21 04:31:33;;;;;;;11.35;8.90;;;;;;;6.86;100.00;101678.03;4922392;29;20056;-75
2022/04/21 04:34:02;;;;;;;12.43;7.88;;;;;;;6.84;100.00;101675.34;4911627;29;20051;-75
2022/04/21 04:36:32;;;;;;;12.15;8.98;;;;;;;6.86;100.00;101678.91;4902539;28;20145;-75
2022/04/21 04:39:01;;;;;;;10.57;7.82;;;;;;;6.87;100.00;101682.44;4955758;28;20121;-75
2022/04/21 04:44:16;;;;;;;11.52;8.55;;;;;;;6.91;100.00;101685.19;4927814;29;20056;-76
2022/04/21 04:46:44;;;;;;;11.90;8.90;;;;;;;6.94;100.00;101677.44;4910013;29;20066;-76
2022/04/21 04:49:13;;;;;;;12.35;8.65;;;;;;;6.98;100.00;101679.31;4947593;28;20040;-74
2022/04/21 04:51:42;;;;;;;11.00;8.65;;;;;;;7.07;100.00;101673.47;4891077;28;20051;-75
2022/04/21 04:54:13;;;;;;;13.10;8.25;;;;;;;7.14;100.00;101680.66;4952678;28;20036;-75
2022/04/21 04:56:44;;;;;;;10.75;7.30;;;;;;;7.19;100.00;101684.31;4934564;28;20173;-77
2022/04/21 04:59:13;;;;;;;10.15;7.63;;;;;;;7.22;100.00;101684.44;4943652;29;20067;-75
2022/04/21 05:01:45;;;;;;;12.40;8.05;;;;;;;7.25;100.00;101673.13;4947252;28;20078;-76
2022/04/21 05:04:17;;;;;;;11.00;7.47;;;;;;;7.27;100.00;101681.06;4957826;28;20056;-76
2022/04/21 05:06:50;;;;;;;10.73;7.07;;;;;;;7.29;100.00;101681.97;4932710;28;20263;-76
2022/04/21 05:09:23;;;;;;;11.27;7.78;;;;;;;7.31;100.00;101680.28;4943304;28;20056;-76
2022/04/21 05:11:54;;;;;;;9.75;6.93;;;;;;;7.35;100.00;101682.16;4930107;28;20285;-76
2022/04/21 05:14:23;;;;;;;;;;;;;;;7.36;100.00;101678.72;4960112;28;20047;-76
2022/04/21 05:16:52;;;;;;;11.02;7.82;;;;;;;7.39;100.00;101666.59;4925743;29;20141;-76
2022/04/21 05:19:21;;;;;;;10.57;7.88;;;;;;;7.44;100.00;101666.69;4911451;29;20044;-76
2022/04/21 05:21:50;;;;;;;10.60;8.20;;;;;;;7.48;100.00;101668.56;4901834;28;20671;-75
2022/04/21 05:24:19;;;;;;;11.93;7.40;;;;;;;7.53;100.00;101666.97;4951268;28;20052;-76
2022/04/21 05:26:47;;;;;;;10.65;7.22;;;;;;;7.60;100.00;101668.06;4917985;29;20062;-76
2022/04/21 05:32:05;;;;;;;13.75;6.95;;;;;;;7.70;100.00;101667.44;4925664;29;20533;-76
2022/04/21 05:34:34;;;;;;;14.85;7.43;;;;;;;7.76;100.00;101667.63;4917404;29;20066;-75
2022/04/21 05:37:03;;;;;;;10.30;7.80;;;;;;;7.83;100.00;101671.31;4925029;29;20044;-75
2022/04/21 05:39:32;;;;;;;11.32;7.60;;;;;;;7.88;100.00;101667.09;4929366;28;20039;-76
2022/04/21 05:42:06;;;;;;;9.30;7.80;;;;;;;7.94;100.00;101679.44;4922836;28;20063;-76
2022/04/21 05:44:35;;;;;;;8.55;7.43;;;;;;;8.00;100.00;101666.53;4933282;28;20420;-76
2022/04/21 05:47:04;;;;;;;13.02;6.68;;;;;;;8.05;100.00;101664.88;4927816;28;20035;-75
2022/04/21 05:49:33;;;;;;;14.00;7.20;;;;;;;8.09;100.00;101669.41;4910853;29;20055;-77
2022/04/21 05:52:04;;;;;;;14.80;7.15;;;;;;;8.16;100.00;101667.81;4943753;29;20429;-75
2022/04/21 05:54:33;;;;;;;7.93;7.07;;;;;;;8.24;100.00;101665.38;4899758;29;20071;-75
2022/04/21 05:57:02;;;;;;;9.00;7.03;;;;;;;8.57;100.00;101660.13;4918748;29;20052;-77
2022/04/21 05:59:32;;;;;;;10.18;6.50;;;;;;;9.24;100.00;101652.00;4925189;29;20047;-75
2022/04/21 06:02:01;;;;;;;7.15;6.43;;;;;;;9.87;100.00;101666.47;4960472;28;20052;-76
2022/04/21 06:04:29;;;;;;;7.25;6.28;;;;;;;10.23;100.00;101663.59;4944025;28;20398;-75
2022/04/21 06:06:58;;;;;;;9.25;5.90;;;;;;;10.46;100.00;101660.50;4930579;29;20060;-76
2022/04/21 06:09:27;;;;;;;6.20;5.60;;;;;;;10.63;100.00;101663.41;4949416;28;20044;-76
2022/04/21 06:11:56;;;;;;;9.65;5.50;;;;;;;10.64;99.36;101660.81;4921082;29;20295;-76
2022/04/21 06:14:27;;;;;;;17.13;5.82;;;;;;;10.65;97.72;101665.22;4945051;28;20048;-77
2022/04/21 06:16:55;;;;;;;11.52;5.43;;;;;;;10.64;97.04;101673.09;4920998;29;20043;-75
2022/04/21 06:19:23;;;;;;;14.73;5.28;;;;;;;10.62;96.81;101661.63;4929196;29;20040;-75
2022/04/21 06:21:52;;;;;;;11.23;5.72;;;;;;;10.62;96.72;101666.91;4943424;28;20270;-79
2022/04/21 06:24:20;;;;;;;9.32;5.40;;;;;;;10.66;95.54;101666.09;4902420;29;20536;-76
2022/04/21 06:26:49;;;;;;;7.57;5.70;;;;;;;10.86;94.87;101659.38;4933523;28;20359;-76
2022/04/21 06:29:17;;;;;;;7.88;5.18;;;;;;;11.06;94.32;101664.97;4945969;29;20054;-76
2022/04/21 06:31:48;;;;;;;7.90;5.05;;;;;;;11.17;92.55;101662.47;4910489;29;20624;-75
2022/04/21 06:34:17;;;;;;;7.25;5.45;;;;;;;11.30;93.10;101652.94;4937964;28;20060;-75
2022/04/21 06:36:45;;;;;;;15.80;5.15;;;;;;;11.38;92.27;101650.41;4942108;28;20238;-76
2022/04/21 06:39:15;;;;;;;18.85;5.57;;;;;;;11.37;91.19;101660.09;4925568;28;20060;-76
2022/04/21 06:41:43;;;;;;;9.05;4.72;;;;;;;11.37;90.90;101657.44;4958088;28;20254;-76
2022/04/21 06:49:52;;;;;;;11.95;4.68;;;;;;;11.53;86.96;101658.53;4945752;28;20036;-77
2022/04/21 06:52:20;;;;;;;13.15;5.05;;;;;;;11.85;86.38;101658.91;4958304;28;20048;-76
2022/04/21 06:54:49;;;;;;;13.13;4.32;;;;;;;12.20;86.43;101649.59;4921118;28;20377;-76
2022/04/21 06:57:18;;;;;;;14.35;4.85;;;;;;;12.53;85.08;101659.56;4961015;28;20397;-76
2022/04/21 06:59:46;;;;;;;5.85;3.47;;;;;;;12.74;83.81;101658.88;4933499;28;20051;-76
2022/04/21 07:02:16;;;;;;;4.30;3.90;;;;;;;12.80;81.38;101655.38;4932773;29;20048;-75
2022/04/21 07:04:44;;;;;;;6.95;4.20;;;;;;;12.77;81.61;101661.50;4920261;29;20051;-76
2022/04/21 07:07:13;;;;;;;7.28;3.58;;;;;;;12.84;82.30;101663.34;4910890;29;20051;-76
2022/04/21 07:09:41;;;;;;;8.70;3.47;;;;;;;12.97;81.42;101666.94;4915704;29;20653;-75
2022/04/21 07:12:09;;;;;;;10.10;4.20;;;;;;;13.11;80.83;101667.03;4902977;28;20051;-77
2022/04/21 07:14:38;;;;;;;9.77;3.88;;;;;;;13.18;80.18;101663.53;4947047;28;20092;-75
2022/04/21 07:17:07;;;;;;;10.27;3.80;;;;;;;13.18;78.41;101668.84;4930061;29;20051;-76
2022/04/21 07:19:35;;;;;;;4.10;3.75;;;;;;;13.09;77.10;101670.53;4917721;29;20052;-76
2022/04/21 07:22:04;;;;;;;3.40;3.10;;;;;;;12.99;76.93;101667.84;4912048;29;20529;-76
2022/04/21 07:24:32;;;;;;;6.60;3.45;;;;;;;12.95;77.80;101675.72;4924341;29;20047;-75
2022/04/21 07:27:01;;;;;;;10.27;3.25;;;;;;;12.95;77.06;101670.44;4877411;29;20416;-76
2022/04/21 07:29:30;;;;;;;5.95;3.65;;;;;;;12.93;76.33;101674.84;4919511;29;20058;-75
2022/04/21 07:31:59;;;;;;;4.75;3.33;;;;;;;12.91;77.00;101672.22;4942171;28;20397;-75
2022/04/21 07:34:28;;;;;;;6.10;3.13;;;;;;;13.00;76.62;101671.38;4932213;28;20039;-75
2022/04/21 07:36:57;;;;;;;6.15;3.08;;;;;;;13.07;75.99;101673.19;4927524;29;20397;-75
2022/04/21 07:39:26;;;;;;;3.50;3.20;;;;;;;13.11;75.31;101674.97;4925011;29;20497;-76
2022/04/21 07:41:56;;;;;;;4.80;2.95;;;;;;;13.07;74.06;101679.34;4918712;29;20254;-75
2022/04/21 07:44:29;;;;;;;3.30;2.97;;;;;;;13.08;72.41;101674.97;4929146;28;20074;-76
2022/04/21 07:46:58;;;;;;;4.72;3.00;;;;;;;13.09;71.64;101673.19;4933902;28;20052;-76
2022/04/21 07:49:45;;;;;;;6.80;2.63;;;;;;;13.07;71.12;101676.69;4913290;29;20039;-75
2022/04/21 07:55:19;;;;;;;5.63;3.22;;;;;;;13.18;70.28;101655.59;4943615;28;20406;-76
2022/04/21 07:57:48;;;;;;;4.75;2.67;;;;;;;13.21;69.71;101668.88;4920720;28;20270;-76
2022/04/21 08:00:17;;;;;;;5.45;2.80;;;;;;;13.22;70.17;101661.78;4952671;28;20052;-77
2022/04/21 08:02:48;;;;;;;4.82;2.70;;;;;;;13.29;69.68;101668.00;4931560;28;20429;-75
2022/04/21 08:05:19;;;;;;;3.67;2.97;;;;;;;13.35;70.04;101668.06;4923438;29;20056;-76
2022/04/21 08:07:48;;;;;;;4.72;2.85;;;;;;;13.45;70.56;101659.28;4926494;29;20074;-75
2022/04/21 08:10:20;;;;;;;4.60;2.60;;;;;;;13.55;69.71;101666.38;4958750;28;20051;-77
2022/04/21 08:12:51;;;;;;;3.70;2.38;;;;;;;13.64;69.20;101663.75;4917667;29;20441;-75
2022/04/21 08:15:34;;;;;;;6.93;2.85;;;;;;;13.73;67.56;101664.69;4936145;28;20404;-76
2022/04/21 08:18:05;;;;;;;7.25;2.63;;;;;;;13.77;68.11;101658.53;4921020;29;20057;-76
2022/04/21 08:20:34;;;;;;;5.32;2.60;;;;;;;13.87;68.08;101656.78;4933594;28;20040;-75
2022/04/21 08:23:03;;;;;;;8.93;2.77;;;;;;;13.98;67.01;101655.03;4941452;28;20055;-76
2022/04/21 08:34:24;;;;;;;15.13;3.03;;;;;;;14.39;65.66;101652.44;4942959;28;20052;-75
2022/04/21 08:36:55;;;;;;;2.80;2.40;;;;;;;14.42;65.15;101670.09;4936168;28;20054;-75
2022/04/21 08:39:24;;;;;;;4.60;2.13;;;;;;;14.35;64.63;101655.97;4930631;29;20051;-76
2022/04/21 08:42:00;;;;;;;8.43;2.33;;;;;;;14.42;63.81;101657.75;4957329;28;20624;-76
2022/04/21 08:44:33;;;;;;;9.38;4.00;;;;;;;14.52;63.27;101653.31;4937384;28;20061;-75
2022/04/21 08:47:06;;;;;;;5.15;2.42;;;;;;;14.56;62.68;101644.47;4943051;29;20039;-76
2022/04/21 08:49:36;;;;;;;19.77;4.03;;;;;;;14.72;62.35;101655.97;4947052;28;20058;-76
2022/04/21 08:52:05;;;;;;;9.90;3.03;;;;;;;14.82;61.97;101654.22;4952936;28;20501;-75
2022/04/21 08:54:35;;;;;;;;;;;;;;;14.86;59.20;101655.97;4939289;29;20312;-76
2022/04/21 08:57:06;;;;;;;2.78;2.13;;;;;;;14.95;60.97;101655.06;4920174;29;20388;-75
2022/04/21 08:59:37;;;;;;;3.63;2.50;;;;;;;15.05;61.37;101647.94;4932168;29;20048;-76
2022/04/21 09:02:05;;;;;;;4.80;2.60;;;;;;;15.06;61.00;101640.00;4932531;28;20048;-77
2022/04/21 09:04:34;;;;;;;8.20;3.13;;;;;;;15.16;60.70;101652.38;4915347;29;20052;-76
2022/04/21 09:07:21;;;;;;;3.90;2.90;;;;;;;15.09;59.39;101650.63;4935767;28;20490;-75
2022/04/21 09:10:04;;;;;;;4.10;2.55;;;;;;;14.97;58.34;101642.66;4939385;29;20179;-77
2022/04/21 09:12:34;;;;;;;2.53;2.33;;;;;;;14.89;60.84;101650.66;4940534;28;20040;-76
2022/04/21 09:15:10;;;;;;;4.30;3.10;;;;;;;14.91;61.47;101643.56;4927271;29;20040;-75
2022/04/21 09:17:43;;;;;;;8.75;2.78;;;;;;;14.98;61.35;101642.66;4896053;28;20058;-75
2022/04/21 09:20:15;;;;;;;9.25;2.90;;;;;;;15.11;61.16;101640.00;4933892;28;20043;-75
2022/04/21 09:22:56;;;;;;;4.93;3.13;;;;;;;15.24;60.41;101652.34;4946703;28;20048;-76
2022/04/21 09:25:42;;;;;;;10.30;2.55;;;;;;;15.19;60.95;101631.09;4952770;28;20397;-77
2022/04/21 09:28:26;;;;;;;12.15;3.53;;;;;;;15.29;59.30;101631.06;4959214;28;20405;-77
2022/04/21 09:31:02;;;;;;;10.85;3.45;;;;;;;15.23;60.26;101636.41;4927600;29;20261;-76
2022/04/21 09:33:33;;;;;;;17.17;4.05;;;;;;;15.24;59.76;101622.25;4883315;28;20062;-77
2022/04/21 09:36:06;;;;;;;10.82;3.10;;;;;;;15.26;60.13;101618.69;4927887;29;20489;-76
2022/04/21 09:38:34;;;;;;;3.05;2.72;;;;;;;15.32;59.76;101621.31;4945149;28;20051;-77
2022/04/21 09:41:11;;;;;;;8.50;3.47;;;;;;;15.37;60.22;101619.53;4906395;29;20036;-76
2022/04/21 09:43:42;;;;;;;14.27;3.38;;;;;;;15.44;60.44;101614.19;4926039;29;20276;-76
2022/04/21 09:46:13;;;;;;;2.85;2.53;;;;;;;15.45;59.66;101605.34;4960916;28;20059;-75
2022/04/21 09:48:44;;;;;;;3.10;2.25;;;;;;;15.48;60.11;101602.66;4936367;28;20028;-76
2022/04/21 09:51:15;;;;;;;3.22;2.40;;;;;;;15.55;59.65;101601.75;4934955;28;20047;-75
2022/04/21 09:53:59;;;;;;;9.25;2.25;;;;;;;15.67;58.78;101608.75;4965796;28;20074;-76
2022/04/21 09:56:32;;;;;;;6.60;2.20;;;;;;;15.72;59.22;101615.81;4953271;28;20036;-76
2022/04/21 09:59:08;;;;;;;3.85;2.13;;;;;;;15.75;57.74;101614.97;4931702;29;20051;-76
2022/04/21 10:01:42;;;;;;;11.63;2.65;;;;;;;15.82;57.87;101611.34;4949286;28;20229;-76
2022/04/21 10:04:12;;;;;;;6.53;2.55;;;;;;;15.90;57.40;101612.19;4927254;28;20052;-76
2022/04/21 10:06:43;;;;;;;12.70;2.90;;;;;;;15.98;57.88;101606.81;4944393;28;20059;-75
2022/04/21 10:09:13;;;;;;;;;;;;;;;16.08;55.38;101605.84;4936143;28;20060;-75
2022/04/21 10:11:42;;;;;;;11.95;2.42;;;;;;;16.16;57.02;101603.13;4951397;28;19923;-75
2022/04/21 10:14:17;;;;;;;12.18;2.63;;;;;;;16.24;57.59;101593.34;4956633;28;20056;-76
2022/04/21 10:16:47;;;;;;;6.60;2.58;;;;;;;16.28;56.69;101586.22;4938852;28;20241;-77
2022/04/21 10:19:19;;;;;;;10.50;3.45;;;;;;;16.33;57.30;101582.63;4923734;28;20032;-77
2022/04/21 10:22:03;;;;;;;3.00;2.15;;;;;;;16.35;57.15;101582.59;4963472;28;20254;-77
2022/04/21 10:24:34;;;;;;;13.55;3.05;;;;;;;16.36;56.76;101579.91;4956022;28;20039;-78
2022/04/21 10:27:06;;;;;;;18.52;2.92;;;;;;;16.35;55.79;101579.94;4940805;28;20056;-76
2022/04/21 10:29:49;;;;;;;2.67;2.22;;;;;;;16.30;54.53;101589.75;4939729;28;20058;-76
2022/04/21 10:32:18;;;;;;;27.00;4.60;;;;;;;16.29;55.97;101582.66;4959354;28;20056;-77
2022/04/21 10:34:49;;;;;;;7.55;2.58;;;;;;;16.35;55.92;101588.81;4927242;28;20360;-76
2022/04/21 10:37:22;;;;;;;5.60;2.42;;;;;;;16.40;54.76;101579.91;4960740;28;20579;-81
2022/04/21 10:40:05;;;;;;;5.38;2.25;;;;;;;16.45;53.64;101570.09;4933388;29;20709;-81
2022/04/21 10:42:52;;;;;;;4.80;2.33;;;;;;;16.48;54.23;101565.66;4951331;28;20038;-82
2022/04/21 10:45:31;;;;;;;5.30;2.20;;;;;;;16.49;54.07;101566.53;4934201;29;20052;-81
2022/04/21 10:48:07;;;;;;;3.22;2.35;;;;;;;16.56;55.31;101565.56;4935693;29;20519;-81
2022/04/21 10:50:37;;;;;;;2.80;2.10;;;;;;;16.61;55.07;101558.41;4938625;28;20749;-81
2022/04/21 10:58:50;;;;;;;5.38;2.78;;;;;;;16.56;54.20;101558.47;4930544;29;20245;-82
2022/04/21 11:01:27;;;;;;;2.80;2.08;;;;;;;16.56;54.83;101566.44;4962225;28;20047;-82
2022/04/21 11:04:05;;;;;;;2.88;2.58;;;;;;;16.60;53.76;101555.75;4965624;28;20039;-83
2022/04/21 11:06:48;;;;;;;6.15;2.25;;;;;;;16.60;53.77;101550.41;4932968;28;20062;-82
2022/04/21 11:09:42;;;;;;;2.40;2.28;;;;;;;16.66;55.67;101551.25;4949902;28;20375;-75
2022/04/21 11:12:49;;;;;;;3.60;2.53;;;;;;;16.75;53.44;101555.59;4927155;29;20370;-75
2022/04/21 11:15:46;;;;;;;3.83;2.35;;;;;;;16.78;53.43;101547.56;4945348;28;20052;-75
2022/04/21 11:18:17;;;;;;;6.50;2.50;;;;;;;16.86;53.92;101544.84;4919881;29;20273;-78
2022/04/21 11:20:47;;;;;;;5.03;3.08;;;;;;;16.91;53.83;101548.34;4958471;28;20040;-77
2022/04/21 11:23:29;;;;;;;3.05;2.58;;;;;;;16.98;53.17;101550.03;4932153;28;20071;-77
2022/04/21 11:26:05;;;;;;;5.28;2.70;;;;;;;17.02;53.95;101546.44;4960272;28;20152;-77
2022/04/21 11:28:35;;;;;;;4.45;2.58;;;;;;;17.09;53.74;101544.59;4941905;29;20269;-77
2022/04/21 11:31:04;;;;;;;3.63;2.60;;;;;;;17.10;51.84;101539.22;4927080;29;20401;-78
2022/04/21 11:33:32;;;;;;;2.72;2.33;;;;;;;17.04;51.90;101543.75;4922378;29;20536;-77
2022/04/21 11:36:01;;;;;;;5.15;3.30;;;;;;;17.03;52.25;101542.88;4935510;28;20043;-77
2022/04/21 11:38:34;;;;;;;5.85;2.60;;;;;;;17.12;52.57;101541.88;4936650;28;20359;-77
2022/04/21 11:41:04;;;;;;;3.40;3.03;;;;;;;17.17;52.00;101540.03;4913592;29;20049;-78
2022/04/21 11:43:33;;;;;;;7.30;2.80;;;;;;;17.21;52.96;101531.09;4940488;28;20032;-78
2022/04/21 11:46:05;;;;;;;3.58;2.70;;;;;;;17.23;52.42;101523.09;4940226;28;20044;-76
2022/04/21 11:48:40;;;;;;;5.85;2.67;;;;;;;17.23;52.04;101525.75;4914352;29;20245;-77
2022/04/21 11:51:10;;;;;;;9.77;2.95;;;;;;;17.24;52.16;101532.81;4945302;28;20050;-76
2022/04/21 11:53:43;;;;;;;5.95;2.65;;;;;;;17.24;52.54;101520.41;4935634;28;20054;-78
2022/04/21 11:56:12;;;;;;;5.68;2.40;;;;;;;17.24;52.40;101519.50;4952594;28;20059;-77
2022/04/21 11:58:41;;;;;;;10.15;2.70;;;;;;;17.19;52.04;101527.56;4951684;28;20405;-77
2022/04/21 12:06:57;;;;;;;3.50;2.40;;;;;;;17.24;51.68;101533.72;4918912;29;20044;-76
2022/04/21 12:09:34;;;;;;;14.68;3.40;;;;;;;17.33;51.43;101527.38;4930466;28;20055;-76
2022/04/21 12:12:05;;;;;;;9.38;3.28;;;;;;;17.36;51.28;101524.69;4917723;29;20060;-76
2022/04/21 12:14:43;;;;;;;4.47;2.90;;;;;;;17.39;51.11;101524.66;4954789;28;20039;-78
2022/04/21 12:17:12;;;;;;;18.50;3.60;;;;;;;17.48;51.98;101527.16;4942412;28;20059;-77
2022/04/21 12:19:45;;;;;;;2.70;2.50;;;;;;;17.58;51.80;101521.69;4923881;28;20048;-79
2022/04/21 12:22:18;;;;;;;8.23;3.10;;;;;;;17.64;51.26;101517.16;4926322;28;20032;-77
2022/04/21 12:24:50;;;;;;;13.90;2.83;;;;;;;17.60;50.47;101517.22;4908692;28;20059;-77
2022/04/21 12:27:37;;;;;;;10.15;2.65;;;;;;;17.59;50.61;101520.81;4947312;28;20051;-77